Aéroport int. de Victoria, Colombie-Britannique

Conditions des dernières 24 heures

Ce tableau est un sommaire des conditions météo couvrant les dernières 24 heures. Ce sommaire inclut les paramètres suivants: température, humidité, point de rosée, direction et vitesse du vent, pression barométrique, facteur de refroidissement éolien ou indice humidex.
Date / Heure
(HAP)
Conditions Temp (°F) Humidite (%) Point de rose (°F) Vent (mph) Pression (pouces) Visibilité (miles)
01 octobre 2014
7:00 Partiellement nuageux 47   93 45 SO 3 30.2 30
6:00 Généralement dégagé 47   94 45 OSO 4 30.2 30
5:00 Généralement dégagé 48 93 46 SO 6 30.2 30
4:00 Généralement dégagé 48 92 46 SO 7 30.2 30
3:00 Partiellement nuageux 50 90 47 SO 4 30.2 30
2:00 Partiellement nuageux 53 85 49 OSO 6 30.2 30
1:00 Partiellement nuageux 54 84 49 O 7 30.2 30
0:00 Partiellement nuageux 51 89 48 ONO 3 30.2 30
30 septembre 2014
23:00 Généralement nuageux 53 89 50 calme 30.1 30
22:00 Généralement nuageux 54 88 50 calme 30.1 30
21:00 Généralement nuageux 58 77 51 ONO 3 30.1 30
20:00 Généralement nuageux 58 75 50 ONO 2 30.1 30
19:00 Généralement nuageux 57 81 51 SO 3 30.1 30
18:00 Généralement nuageux 61 63 49 N 3 30.1 30
17:00 Généralement nuageux 63 58 48 ESE 5 30.1 30
16:00 Partiellement nuageux 64 52 47 ENE 8 30.1 30
15:00 Partiellement nuageux 63 59 48 ENE 6 30.1 30
14:00 Généralement nuageux 65 54 48 SE 8 30.1 30
13:00 Partiellement nuageux 65 52 48 E 7 30.1 30
12:00 Généralement ensoleillé 66   51 47 NO 5 30.1 30
11:00 Généralement ensoleillé 62 57 47 ONO 6 30.1 30
10:00 Partiellement nuageux 61 63 49 ONO 6 30.1 30
9:00 Généralement ensoleillé 58 73 49 ONO 9 30.0 30
8:00 Partiellement nuageux 55 78 48 O 7 30.0 30
7:00 Partiellement nuageux 52 82 47 SO 4 30.0 30
N.D.
non disponible
 ↑ 
température la plus haute
 ↓ 
température la plus basse

Si vous désirez plus de données historiques sur les conditions météo, s.v.p. visitez Données climatologiques en ligne.